createdAt,value
2019-03-31T00:00:11.776Z,0
2019-03-31T00:01:15.568Z,0
2019-03-31T00:02:11.732Z,0
2019-03-31T00:03:11.709Z,0
2019-03-31T00:04:11.686Z,0
2019-03-31T00:05:11.664Z,0
2019-03-31T00:06:11.654Z,0
2019-03-31T00:07:11.634Z,0
2019-03-31T00:08:11.608Z,0
2019-03-31T00:09:11.347Z,0
2019-03-31T00:10:11.564Z,0
2019-03-31T00:11:11.591Z,0
2019-03-31T00:12:11.507Z,0
2019-03-31T00:13:11.486Z,0
2019-03-31T00:14:11.466Z,0
2019-03-31T00:15:11.445Z,0
2019-03-31T00:16:11.416Z,0
2019-03-31T00:17:11.465Z,0
2019-03-31T00:18:11.386Z,0
2019-03-31T00:19:11.355Z,0
2019-03-31T00:20:11.353Z,0
2019-03-31T00:21:11.309Z,0
2019-03-31T00:22:11.291Z,0
2019-03-31T00:23:11.259Z,0
2019-03-31T00:24:11.243Z,0
2019-03-31T00:25:11.250Z,0
2019-03-31T00:26:10.954Z,0
2019-03-31T00:27:11.171Z,0
2019-03-31T00:28:11.201Z,0
2019-03-31T00:29:11.123Z,0
2019-03-31T00:30:11.110Z,0
2019-03-31T00:31:24.318Z,0
2019-03-31T00:32:11.101Z,0
2019-03-31T00:33:11.037Z,0
2019-03-31T00:34:11.015Z,0
2019-03-31T00:35:11.004Z,0
2019-03-31T00:36:10.971Z,0
2019-03-31T00:37:12.583Z,0
2019-03-31T00:38:10.923Z,0
2019-03-31T00:39:10.901Z,0
2019-03-31T00:40:10.882Z,0
2019-03-31T00:41:10.854Z,0
2019-03-31T00:42:10.834Z,0
2019-03-31T00:43:10.801Z,0
2019-03-31T00:44:10.788Z,0
2019-03-31T00:45:10.761Z,0
2019-03-31T00:46:10.734Z,0
2019-03-31T00:47:10.719Z,0
2019-03-31T00:48:10.783Z,0
2019-03-31T00:49:10.700Z,0
2019-03-31T00:50:10.422Z,0
2019-03-31T00:51:10.627Z,0
2019-03-31T00:52:10.596Z,0
2019-03-31T00:53:10.585Z,0
2019-03-31T00:54:10.648Z,0
2019-03-31T00:55:10.547Z,0
2019-03-31T00:56:10.513Z,0
2019-03-31T00:57:10.493Z,0
2019-03-31T00:58:10.470Z,0
2019-03-31T00:59:10.442Z,0
2019-03-31T01:00:10.419Z,0
2019-03-31T01:01:10.410Z,0
2019-03-31T01:02:10.382Z,0
2019-03-31T01:03:10.348Z,0
2019-03-31T01:04:10.329Z,0
2019-03-31T01:05:10.303Z,0
2019-03-31T01:06:10.279Z,0
2019-03-31T01:07:10.257Z,0
2019-03-31T01:08:10.238Z,0
2019-03-31T01:09:10.214Z,0
2019-03-31T01:10:10.203Z,0
2019-03-31T01:11:10.169Z,0
2019-03-31T01:12:10.153Z,0
2019-03-31T01:13:10.120Z,0
2019-03-31T01:14:10.095Z,0
2019-03-31T01:15:10.066Z,0
2019-03-31T01:16:12.557Z,0
2019-03-31T01:17:09.787Z,0
2019-03-31T01:18:10.000Z,0
2019-03-31T01:19:09.982Z,0
2019-03-31T01:20:09.958Z,0
2019-03-31T01:21:09.929Z,0
2019-03-31T01:22:09.911Z,0
2019-03-31T01:23:09.952Z,0
2019-03-31T01:24:09.859Z,0
2019-03-31T01:25:09.838Z,0
2019-03-31T01:26:09.815Z,0
2019-03-31T01:27:09.796Z,0
2019-03-31T01:28:09.763Z,0
2019-03-31T01:29:09.743Z,0
2019-03-31T01:30:09.721Z,0
2019-03-31T01:31:09.695Z,0
2019-03-31T01:32:09.673Z,0
2019-03-31T01:33:09.664Z,0
2019-03-31T01:34:09.634Z,0
2019-03-31T01:35:09.608Z,0
2019-03-31T01:36:09.593Z,0
2019-03-31T01:37:09.553Z,0
2019-03-31T01:38:09.544Z,0
2019-03-31T01:39:09.517Z,0
2019-03-31T01:40:09.500Z,0
2019-03-31T01:41:09.483Z,0
2019-03-31T01:42:09.442Z,0
2019-03-31T01:43:09.420Z,0
2019-03-31T01:44:09.154Z,0
2019-03-31T01:45:09.370Z,0
2019-03-31T01:46:10.661Z,0
2019-03-31T01:47:09.332Z,0
2019-03-31T01:48:09.294Z,0
2019-03-31T01:49:09.273Z,0
2019-03-31T01:50:09.251Z,0
2019-03-31T01:51:09.223Z,0
2019-03-31T01:52:09.206Z,0
2019-03-31T01:53:09.180Z,0
2019-03-31T01:54:09.158Z,0
2019-03-31T01:55:08.887Z,0
2019-03-31T01:56:09.110Z,0
2019-03-31T01:57:09.091Z,0
2019-03-31T01:58:09.062Z,0
2019-03-31T01:59:09.037Z,0
2019-03-31T02:00:09.026Z,0
2019-03-31T02:01:08.997Z,0
2019-03-31T02:02:11.711Z,0
2019-03-31T02:03:08.934Z,0
2019-03-31T02:04:08.913Z,0
2019-03-31T02:05:08.903Z,0
2019-03-31T02:06:08.877Z,0
2019-03-31T02:07:08.864Z,0
2019-03-31T02:08:08.828Z,0
2019-03-31T02:09:08.797Z,0
2019-03-31T02:10:08.795Z,0
2019-03-31T02:11:09.255Z,0
2019-03-31T02:12:08.727Z,0
2019-03-31T02:13:08.706Z,0
2019-03-31T02:14:08.693Z,0
2019-03-31T02:15:08.659Z,0
2019-03-31T02:16:08.637Z,0
2019-03-31T02:17:08.610Z,0
2019-03-31T02:18:08.595Z,0
2019-03-31T02:19:08.574Z,0
2019-03-31T02:20:08.542Z,0
2019-03-31T02:21:08.523Z,0
2019-03-31T02:22:08.497Z,0
2019-03-31T02:23:08.471Z,0
2019-03-31T02:24:08.445Z,0
2019-03-31T02:25:08.491Z,0
2019-03-31T02:26:08.393Z,0
2019-03-31T02:27:08.443Z,0
2019-03-31T02:28:08.370Z,0
2019-03-31T02:29:08.328Z,0
2019-03-31T02:30:08.497Z,0
2019-03-31T02:31:08.288Z,0
2019-03-31T02:32:27.546Z,0
2019-03-31T02:33:08.232Z,0
2019-03-31T02:34:08.233Z,0
2019-03-31T02:35:08.183Z,0
2019-03-31T02:36:08.166Z,0
2019-03-31T02:37:08.145Z,0
2019-03-31T02:38:08.108Z,0
2019-03-31T02:39:08.115Z,0
2019-03-31T02:40:08.073Z,0
2019-03-31T02:41:08.058Z,0
2019-03-31T02:42:08.048Z,0
2019-03-31T02:43:09.206Z,0
2019-03-31T02:44:07.988Z,0
2019-03-31T02:45:07.965Z,0
2019-03-31T02:46:07.918Z,0
2019-03-31T02:47:07.979Z,0
2019-03-31T02:48:07.974Z,0
2019-03-31T02:49:07.851Z,0
2019-03-31T02:50:07.897Z,0
2019-03-31T02:51:07.589Z,0
2019-03-31T02:52:07.862Z,0
2019-03-31T02:53:08.742Z,0
2019-03-31T02:54:07.823Z,0
2019-03-31T02:55:07.748Z,0
2019-03-31T02:56:07.455Z,0
2019-03-31T02:57:07.671Z,0
2019-03-31T02:58:07.654Z,0
2019-03-31T02:59:07.672Z,0
2019-03-31T03:00:07.793Z,0
2019-03-31T03:01:07.570Z,0
2019-03-31T03:02:07.539Z,0
2019-03-31T03:03:07.519Z,0
2019-03-31T03:04:10.334Z,0
2019-03-31T03:05:25.705Z,0
2019-03-31T03:06:07.212Z,0
2019-03-31T03:07:07.436Z,0
2019-03-31T03:08:07.180Z,0
2019-03-31T03:09:07.375Z,0
2019-03-31T03:10:07.694Z,0
2019-03-31T03:11:07.323Z,0
2019-03-31T03:12:07.298Z,0
2019-03-31T03:13:07.300Z,0
2019-03-31T03:14:07.257Z,0
2019-03-31T03:15:07.648Z,0
2019-03-31T03:16:07.220Z,0
2019-03-31T03:17:07.193Z,0
2019-03-31T03:18:07.166Z,0
2019-03-31T03:19:07.255Z,0
2019-03-31T03:20:07.568Z,0
2019-03-31T03:21:07.115Z,0
2019-03-31T03:22:07.059Z,0
2019-03-31T03:23:06.849Z,0
2019-03-31T03:24:07.040Z,0
2019-03-31T03:25:07.072Z,0
2019-03-31T03:26:06.979Z,0
2019-03-31T03:27:06.946Z,0
2019-03-31T03:28:07.049Z,0
2019-03-31T03:29:06.923Z,0
2019-03-31T03:30:06.970Z,0
2019-03-31T03:31:17.174Z,0
2019-03-31T03:32:06.855Z,0
2019-03-31T03:33:23.746Z,0
2019-03-31T03:34:07.232Z,0
2019-03-31T03:35:06.686Z,0
2019-03-31T03:36:06.760Z,0
2019-03-31T03:37:06.478Z,0
2019-03-31T03:38:06.683Z,0
2019-03-31T03:39:06.695Z,0
2019-03-31T03:40:06.394Z,0
2019-03-31T03:41:06.616Z,0
2019-03-31T03:42:06.608Z,0
2019-03-31T03:43:06.615Z,0
2019-03-31T03:44:09.528Z,0
2019-03-31T03:45:06.591Z,0
2019-03-31T03:46:06.497Z,0
2019-03-31T03:47:06.480Z,0
2019-03-31T03:48:06.486Z,0
2019-03-31T03:49:07.911Z,0
2019-03-31T03:50:06.480Z,0
2019-03-31T03:51:06.397Z,0
2019-03-31T03:52:06.107Z,0
2019-03-31T03:53:06.398Z,0
2019-03-31T03:54:06.296Z,0
2019-03-31T03:55:06.038Z,0
2019-03-31T03:56:06.262Z,0
2019-03-31T03:57:06.222Z,0
2019-03-31T03:58:06.209Z,0
2019-03-31T03:59:06.176Z,0
2019-03-31T04:00:06.159Z,0
2019-03-31T04:01:06.137Z,0
2019-03-31T04:02:05.901Z,0
2019-03-31T04:03:06.108Z,0
2019-03-31T04:04:06.090Z,0
2019-03-31T04:05:06.045Z,0
2019-03-31T04:06:06.021Z,0
2019-03-31T04:07:05.984Z,0
2019-03-31T04:08:05.961Z,0
2019-03-31T04:09:05.934Z,0
2019-03-31T04:10:05.929Z,0
2019-03-31T04:11:05.893Z,0
2019-03-31T04:12:05.877Z,0
2019-03-31T04:13:05.849Z,0
2019-03-31T04:14:05.816Z,0
2019-03-31T04:15:05.828Z,0
2019-03-31T04:16:05.781Z,0
2019-03-31T04:17:05.758Z,0
2019-03-31T04:18:05.737Z,0
2019-03-31T04:19:05.785Z,0
2019-03-31T04:20:05.692Z,0
2019-03-31T04:21:05.683Z,0
2019-03-31T04:22:05.655Z,0
2019-03-31T04:23:05.621Z,0
2019-03-31T04:24:05.603Z,0
2019-03-31T04:25:05.571Z,0
2019-03-31T04:26:05.553Z,0
2019-03-31T04:27:05.506Z,0
2019-03-31T04:28:05.506Z,0
2019-03-31T04:29:05.463Z,0
2019-03-31T04:30:05.634Z,0
2019-03-31T04:31:05.422Z,0
2019-03-31T04:32:05.402Z,0
2019-03-31T04:33:05.538Z,0
2019-03-31T04:34:05.339Z,0
2019-03-31T04:35:05.441Z,0
2019-03-31T04:36:05.061Z,0
2019-03-31T04:37:05.270Z,4
2019-03-31T04:38:05.263Z,0
2019-03-31T04:39:07.573Z,4
2019-03-31T04:40:05.331Z,4
2019-03-31T04:41:05.168Z,4
2019-03-31T04:42:05.140Z,4
2019-03-31T04:43:05.128Z,4
2019-03-31T04:44:05.085Z,4
2019-03-31T04:45:05.124Z,8
2019-03-31T04:46:05.041Z,8
2019-03-31T04:47:05.124Z,8
2019-03-31T04:48:04.998Z,12
2019-03-31T04:49:04.978Z,12
2019-03-31T04:50:05.057Z,16
2019-03-31T04:51:04.916Z,16
2019-03-31T04:52:04.955Z,24
2019-03-31T04:53:04.866Z,28
2019-03-31T04:54:04.845Z,36
2019-03-31T04:55:04.826Z,44
2019-03-31T04:56:04.812Z,52
2019-03-31T04:57:06.999Z,60
2019-03-31T04:58:04.765Z,68
2019-03-31T04:59:04.725Z,80
2019-03-31T05:00:04.701Z,96
2019-03-31T05:01:04.693Z,108
2019-03-31T05:02:04.666Z,120
2019-03-31T05:03:04.645Z,132
2019-03-31T05:04:12.075Z,152
2019-03-31T05:05:04.606Z,172
2019-03-31T05:06:04.580Z,192
2019-03-31T05:07:04.531Z,208
2019-03-31T05:08:04.507Z,232
2019-03-31T05:09:04.482Z,252
2019-03-31T05:10:04.538Z,276
2019-03-31T05:11:04.433Z,296
2019-03-31T05:12:04.407Z,324
2019-03-31T05:13:04.390Z,344
2019-03-31T05:14:04.357Z,368
2019-03-31T05:15:04.383Z,384
2019-03-31T05:16:04.311Z,400
2019-03-31T05:17:04.322Z,420
2019-03-31T05:18:04.277Z,428
2019-03-31T05:19:04.243Z,440
2019-03-31T05:20:04.215Z,436
2019-03-31T05:21:04.183Z,424
2019-03-31T05:22:04.161Z,412
2019-03-31T05:23:04.162Z,416
2019-03-31T05:24:04.175Z,416
2019-03-31T05:25:04.086Z,424
2019-03-31T05:26:04.066Z,428
2019-03-31T05:27:04.040Z,440
2019-03-31T05:28:04.023Z,452
2019-03-31T05:29:03.998Z,456
2019-03-31T05:30:03.987Z,464
2019-03-31T05:31:03.976Z,480
2019-03-31T05:32:03.925Z,508
2019-03-31T05:33:03.890Z,564
2019-03-31T05:34:18.005Z,620
2019-03-31T05:35:03.850Z,680
2019-03-31T05:36:03.854Z,740
2019-03-31T05:37:03.803Z,800
2019-03-31T05:38:03.770Z,860
2019-03-31T05:39:03.756Z,920
2019-03-31T05:40:03.736Z,988
2019-03-31T05:41:03.709Z,1052
2019-03-31T05:42:03.673Z,1124
2019-03-31T05:43:03.717Z,1188
2019-03-31T05:44:12.918Z,1260
2019-03-31T05:45:03.639Z,1308
2019-03-31T05:46:03.580Z,1352
2019-03-31T05:47:03.553Z,1396
2019-03-31T05:48:03.538Z,1440
2019-03-31T05:49:03.504Z,1492
2019-03-31T05:50:03.475Z,1540
2019-03-31T05:51:03.454Z,1588
2019-03-31T05:52:03.439Z,1644
2019-03-31T05:53:03.409Z,1716
2019-03-31T05:54:03.383Z,1804
2019-03-31T05:55:03.362Z,1920
2019-03-31T05:56:03.334Z,2052
2019-03-31T05:57:03.309Z,2192
2019-03-31T05:58:03.285Z,2312
2019-03-31T05:59:03.032Z,2408
2019-03-31T06:00:03.238Z,2464
2019-03-31T06:01:03.214Z,2492
2019-03-31T06:02:03.266Z,2492
2019-03-31T06:03:03.157Z,2504
2019-03-31T06:04:03.138Z,2528
2019-03-31T06:05:03.108Z,2576
2019-03-31T06:06:03.179Z,2636
2019-03-31T06:07:03.078Z,2728
2019-03-31T06:08:03.054Z,2856
2019-03-31T06:09:03.020Z,2988
2019-03-31T06:10:02.997Z,3104
2019-03-31T06:11:02.971Z,3184
2019-03-31T06:12:02.964Z,3220
2019-03-31T06:13:02.917Z,3212
2019-03-31T06:14:02.947Z,3160
2019-03-31T06:15:02.777Z,3060
2019-03-31T06:16:02.850Z,2932
2019-03-31T06:17:02.885Z,2816
2019-03-31T06:18:02.797Z,2712
2019-03-31T06:19:02.767Z,2632
2019-03-31T06:20:02.844Z,2556
2019-03-31T06:21:02.737Z,2468
2019-03-31T06:22:02.707Z,2368
2019-03-31T06:23:02.693Z,2300
2019-03-31T06:24:02.660Z,2300
2019-03-31T06:25:02.829Z,2368
2019-03-31T06:26:02.641Z,2468
2019-03-31T06:27:02.602Z,2588
2019-03-31T06:28:02.556Z,2724
2019-03-31T06:29:02.537Z,2852
2019-03-31T06:30:02.700Z,2964
2019-03-31T06:31:02.477Z,3088
2019-03-31T06:32:02.456Z,3256
2019-03-31T06:33:02.735Z,3460
2019-03-31T06:34:02.409Z,3648
2019-03-31T06:35:02.478Z,3832
2019-03-31T06:36:02.357Z,4016
2019-03-31T06:37:02.369Z,4192
2019-03-31T06:38:02.307Z,4316
2019-03-31T06:39:02.286Z,4396
2019-03-31T06:40:02.269Z,4432
2019-03-31T06:41:02.244Z,4468
2019-03-31T06:42:02.295Z,4488
2019-03-31T06:43:02.190Z,4476
2019-03-31T06:44:02.169Z,4500
2019-03-31T06:45:02.148Z,4552
2019-03-31T06:46:02.120Z,4596
2019-03-31T06:47:02.092Z,4612
2019-03-31T06:48:01.938Z,4644
2019-03-31T06:49:02.038Z,4636
2019-03-31T06:50:02.012Z,4604
2019-03-31T06:51:01.999Z,4536
2019-03-31T06:52:01.979Z,4476
2019-03-31T06:53:01.945Z,4500
2019-03-31T06:54:01.699Z,4512
2019-03-31T06:55:01.894Z,4540
2019-03-31T06:56:01.892Z,4620
2019-03-31T06:57:01.864Z,4712
2019-03-31T06:58:01.590Z,4776
2019-03-31T06:59:01.792Z,4848
2019-03-31T07:00:01.774Z,4856
2019-03-31T07:01:01.751Z,4904
2019-03-31T07:02:05.365Z,4988
2019-03-31T07:03:01.697Z,5128
2019-03-31T07:04:01.693Z,5248
2019-03-31T07:05:07.927Z,5328
2019-03-31T07:06:01.623Z,5384
2019-03-31T07:07:01.600Z,5624
2019-03-31T07:08:01.776Z,5744
2019-03-31T07:09:01.816Z,5792
2019-03-31T07:10:01.530Z,5816
2019-03-31T07:11:01.501Z,6008
2019-03-31T07:12:01.509Z,5860
2019-03-31T07:13:04.588Z,5980
2019-03-31T07:14:01.434Z,6160
2019-03-31T07:15:01.417Z,6012
2019-03-31T07:16:01.140Z,5976
2019-03-31T07:17:01.357Z,5968
2019-03-31T07:18:01.327Z,5820
2019-03-31T07:19:01.307Z,5784
2019-03-31T07:20:01.272Z,5832
2019-03-31T07:21:01.255Z,5840
2019-03-31T07:22:01.235Z,5756
2019-03-31T07:23:01.215Z,5640
2019-03-31T07:24:01.180Z,5576
2019-03-31T07:25:01.246Z,5572
2019-03-31T07:26:01.135Z,5552
2019-03-31T07:27:01.114Z,5440
2019-03-31T07:28:01.079Z,5416
2019-03-31T07:29:01.053Z,5576
2019-03-31T07:30:01.031Z,5656
2019-03-31T07:31:04.132Z,5572
2019-03-31T07:32:00.983Z,5512
2019-03-31T07:33:00.955Z,5580
2019-03-31T07:34:00.932Z,5800
2019-03-31T07:35:00.913Z,5972
2019-03-31T07:36:00.889Z,6156
2019-03-31T07:37:00.862Z,6256
2019-03-31T07:38:00.828Z,6276
2019-03-31T07:39:01.064Z,6336
2019-03-31T07:40:01.743Z,6352
2019-03-31T07:41:14.696Z,6604
2019-03-31T07:42:02.014Z,6528
2019-03-31T07:43:00.877Z,6484
2019-03-31T07:44:00.685Z,6496
2019-03-31T07:45:01.150Z,6744
2019-03-31T07:46:03.056Z,6840
2019-03-31T07:47:00.882Z,6728
2019-03-31T07:48:00.594Z,6852
2019-03-31T07:49:00.579Z,7168
2019-03-31T07:50:00.539Z,7588
2019-03-31T07:51:00.976Z,8296
2019-03-31T07:52:00.254Z,8764
2019-03-31T07:53:00.485Z,8960
2019-03-31T07:54:00.447Z,9324
2019-03-31T07:55:00.416Z,9592
2019-03-31T07:56:00.389Z,9404
2019-03-31T07:57:00.367Z,9064
2019-03-31T07:58:01.737Z,8252
2019-03-31T07:59:00.306Z,8164
2019-03-31T08:00:03.657Z,8632
2019-03-31T08:01:00.279Z,9772
2019-03-31T08:02:00.244Z,10748
2019-03-31T08:03:02.726Z,11112
2019-03-31T08:04:00.197Z,11140
2019-03-31T08:05:00.409Z,11136
2019-03-31T08:06:00.147Z,11180
2019-03-31T08:07:00.126Z,10788
2019-03-31T08:08:00.108Z,10868
2019-03-31T08:09:00.613Z,11044
2019-03-31T08:10:00.051Z,11392
2019-03-31T08:11:00.116Z,11636
2019-03-31T08:12:01.334Z,11628
2019-03-31T08:13:01.197Z,11520
2019-03-31T08:14:02.346Z,11308
2019-03-31T08:14:59.938Z,10908
2019-03-31T08:15:59.688Z,10608
2019-03-31T08:16:59.883Z,10340
2019-03-31T08:17:59.866Z,9936
2019-03-31T08:18:59.829Z,9380
2019-03-31T08:19:59.808Z,8876
2019-03-31T08:20:59.789Z,8700
2019-03-31T08:21:59.768Z,8332
2019-03-31T08:23:01.891Z,8376
2019-03-31T08:23:59.717Z,8456
2019-03-31T08:24:59.760Z,8336
2019-03-31T08:25:59.663Z,8156
2019-03-31T08:26:59.648Z,8568
2019-03-31T08:27:59.615Z,8840
2019-03-31T08:29:03.177Z,9144
2019-03-31T08:30:07.578Z,9404
2019-03-31T08:30:59.558Z,9556
2019-03-31T08:31:59.532Z,9692
2019-03-31T08:32:59.518Z,9788
2019-03-31T08:33:59.481Z,9908
2019-03-31T08:34:59.446Z,10060
2019-03-31T08:35:59.436Z,10228
2019-03-31T08:36:59.403Z,10396
2019-03-31T08:37:59.387Z,10500
2019-03-31T08:38:59.357Z,10532
2019-03-31T08:39:59.330Z,10604
2019-03-31T08:40:59.308Z,10732
2019-03-31T08:41:59.279Z,10836
2019-03-31T08:42:59.269Z,10856
2019-03-31T08:43:59.236Z,10856
2019-03-31T08:44:59.229Z,10912
2019-03-31T08:45:59.191Z,10872
2019-03-31T08:46:59.167Z,10820
2019-03-31T08:47:59.142Z,11080
2019-03-31T08:48:59.119Z,11292
2019-03-31T08:50:01.970Z,11492
2019-03-31T08:50:59.076Z,11828
2019-03-31T08:51:59.073Z,12104
2019-03-31T08:52:59.021Z,12292
2019-03-31T08:53:59.002Z,12540
2019-03-31T08:54:58.977Z,12884
2019-03-31T08:55:58.953Z,13268
2019-03-31T08:56:58.981Z,13604
2019-03-31T08:57:58.913Z,13948
2019-03-31T08:58:58.897Z,14380
2019-03-31T08:59:58.867Z,14624
2019-03-31T09:00:58.846Z,14880
2019-03-31T09:01:58.821Z,15580
2019-03-31T09:02:58.785Z,16440
2019-03-31T09:03:58.768Z,16876
2019-03-31T09:04:58.746Z,17344
2019-03-31T09:06:09.152Z,17728
2019-03-31T09:06:58.711Z,17920
2019-03-31T09:07:58.721Z,18016
2019-03-31T09:08:58.649Z,18112
2019-03-31T09:09:58.631Z,18240
2019-03-31T09:10:58.621Z,18336
2019-03-31T09:11:58.588Z,18592
2019-03-31T09:12:58.565Z,18976
2019-03-31T09:13:58.546Z,19232
2019-03-31T09:14:58.522Z,19712
2019-03-31T09:15:58.505Z,19392
2019-03-31T09:16:58.478Z,19136
2019-03-31T09:18:01.253Z,19680
2019-03-31T09:18:58.446Z,19360
2019-03-31T09:19:58.422Z,18592
2019-03-31T09:20:58.408Z,18560
2019-03-31T09:21:58.375Z,18688
2019-03-31T09:22:58.365Z,18912
2019-03-31T09:23:58.358Z,17792
2019-03-31T09:24:58.351Z,16812
2019-03-31T09:25:58.307Z,16976
2019-03-31T09:26:58.293Z,17400
2019-03-31T09:27:58.267Z,16632
2019-03-31T09:28:58.251Z,14904
2019-03-31T09:29:58.228Z,14552
2019-03-31T09:30:58.206Z,14452
2019-03-31T09:31:58.261Z,14644
2019-03-31T09:32:58.208Z,14876
2019-03-31T09:33:58.166Z,16744
2019-03-31T09:34:58.126Z,17760
2019-03-31T09:35:58.102Z,16208
2019-03-31T09:36:58.097Z,16012
2019-03-31T09:37:58.063Z,17984
2019-03-31T09:38:58.814Z,19872
2019-03-31T09:39:58.020Z,19168
2019-03-31T09:40:58.079Z,18752
2019-03-31T09:41:57.745Z,17728
2019-03-31T09:42:57.966Z,17260
2019-03-31T09:43:57.993Z,18048
2019-03-31T09:44:57.949Z,17372
2019-03-31T09:45:57.905Z,17148
2019-03-31T09:46:57.883Z,18464
2019-03-31T09:47:57.856Z,19264
2019-03-31T09:48:57.842Z,20736
2019-03-31T09:49:57.817Z,21952
2019-03-31T09:51:01.265Z,19808
2019-03-31T09:51:57.775Z,15556
2019-03-31T09:52:57.805Z,13848
2019-03-31T09:53:57.735Z,12748
2019-03-31T09:54:57.712Z,12732
2019-03-31T09:55:57.694Z,13904
2019-03-31T09:56:57.743Z,15388
2019-03-31T09:57:57.656Z,15716
2019-03-31T09:58:57.631Z,15692
2019-03-31T09:59:57.611Z,14580
2019-03-31T10:00:57.599Z,13320
2019-03-31T10:01:57.572Z,13556
2019-03-31T10:03:00.851Z,15404
2019-03-31T10:03:57.529Z,16076
2019-03-31T10:04:57.509Z,16652
2019-03-31T10:06:12.163Z,16480
2019-03-31T10:06:57.468Z,15656
2019-03-31T10:07:57.209Z,15536
2019-03-31T10:08:57.443Z,16828
2019-03-31T10:09:57.406Z,16416
2019-03-31T10:10:57.384Z,15992
2019-03-31T10:11:57.364Z,16812
2019-03-31T10:12:57.339Z,17756
2019-03-31T10:13:57.418Z,18656
2019-03-31T10:14:59.110Z,18656
2019-03-31T10:15:57.311Z,20192
2019-03-31T10:16:58.389Z,22400
2019-03-31T10:17:57.235Z,24160
2019-03-31T10:18:57.236Z,25920
2019-03-31T10:19:57.200Z,27488
2019-03-31T10:20:57.172Z,27584
2019-03-31T10:21:57.157Z,28064
2019-03-31T10:22:57.137Z,28960
2019-03-31T10:23:57.113Z,25600
2019-03-31T10:24:57.656Z,23744
2019-03-31T10:25:58.218Z,24256
2019-03-31T10:26:57.060Z,25248
2019-03-31T10:27:57.031Z,22912
2019-03-31T10:28:57.010Z,22112
2019-03-31T10:29:56.991Z,21152
2019-03-31T10:30:56.977Z,20352
2019-03-31T10:31:56.965Z,20480
2019-03-31T10:32:56.944Z,20736
2019-03-31T10:33:56.933Z,20800
2019-03-31T10:34:56.909Z,20896
2019-03-31T10:35:56.878Z,21664
2019-03-31T10:36:56.859Z,20672
2019-03-31T10:37:56.840Z,18656
2019-03-31T10:38:56.837Z,18112
2019-03-31T10:39:56.877Z,16212
2019-03-31T10:40:56.801Z,14744
2019-03-31T10:41:56.760Z,13928
2019-03-31T10:42:56.740Z,13312
2019-03-31T10:43:56.723Z,13552
2019-03-31T10:44:56.468Z,13656
2019-03-31T10:45:56.681Z,13536
2019-03-31T10:46:58.387Z,12588
2019-03-31T10:47:56.640Z,12132
2019-03-31T10:48:56.624Z,12192
2019-03-31T10:49:56.593Z,12704
2019-03-31T10:50:56.587Z,13120
2019-03-31T10:51:56.487Z,13076
2019-03-31T10:52:57.043Z,12608
2019-03-31T10:53:56.542Z,12904
2019-03-31T10:54:56.508Z,14012
2019-03-31T10:55:56.478Z,14936
2019-03-31T10:56:56.460Z,15136
2019-03-31T10:57:56.453Z,15400
2019-03-31T10:58:56.198Z,16104
2019-03-31T10:59:56.429Z,16772
2019-03-31T11:00:56.375Z,17132
2019-03-31T11:01:56.375Z,18144
2019-03-31T11:02:56.334Z,19872
2019-03-31T11:03:56.315Z,21248
2019-03-31T11:04:56.290Z,21568
2019-03-31T11:05:56.263Z,20672
2019-03-31T11:07:08.369Z,20192
2019-03-31T11:07:56.230Z,20800
2019-03-31T11:08:56.206Z,22016
2019-03-31T11:09:56.199Z,23712
2019-03-31T11:10:57.264Z,26144
2019-03-31T11:11:56.150Z,29568
2019-03-31T11:12:58.172Z,32256
2019-03-31T11:13:56.118Z,33984
2019-03-31T11:14:56.084Z,34400
2019-03-31T11:15:59.703Z,33984
2019-03-31T11:16:56.039Z,32960
2019-03-31T11:17:56.022Z,31264
2019-03-31T11:18:56.006Z,29856
2019-03-31T11:19:55.984Z,28832
2019-03-31T11:20:55.966Z,27744
2019-03-31T11:21:55.949Z,27488
2019-03-31T11:22:55.936Z,27456
2019-03-31T11:23:55.913Z,28096
2019-03-31T11:24:55.881Z,28672
2019-03-31T11:25:55.878Z,28192
2019-03-31T11:26:55.858Z,27072
2019-03-31T11:27:55.828Z,24288
2019-03-31T11:28:55.812Z,22016
2019-03-31T11:29:55.793Z,21440
2019-03-31T11:30:55.780Z,21696
2019-03-31T11:31:55.747Z,21760
2019-03-31T11:32:55.753Z,21696
2019-03-31T11:33:55.714Z,21664
2019-03-31T11:34:55.733Z,21152
2019-03-31T11:35:55.683Z,21152
2019-03-31T11:36:55.663Z,22720
2019-03-31T11:37:55.639Z,25696
2019-03-31T11:38:55.643Z,28352
2019-03-31T11:39:55.600Z,30816
2019-03-31T11:40:55.580Z,32256
2019-03-31T11:41:55.562Z,33472
2019-03-31T11:42:55.541Z,35040
2019-03-31T11:43:55.524Z,34208
2019-03-31T11:44:55.501Z,32768
2019-03-31T11:45:55.487Z,31936
2019-03-31T11:46:55.464Z,32384
2019-03-31T11:47:55.443Z,32960
2019-03-31T11:48:55.428Z,32640
2019-03-31T11:49:55.413Z,30720
2019-03-31T11:50:55.396Z,27936
2019-03-31T11:51:55.430Z,26880
2019-03-31T11:52:55.352Z,26784
2019-03-31T11:53:55.336Z,26464
2019-03-31T11:54:55.629Z,26976
2019-03-31T11:55:55.921Z,28064
2019-03-31T11:56:55.279Z,29248
2019-03-31T11:57:55.266Z,31296
2019-03-31T11:58:55.248Z,32416
2019-03-31T11:59:56.943Z,32256
2019-03-31T12:00:55.211Z,32256
2019-03-31T12:01:55.193Z,31808
2019-03-31T12:02:55.176Z,31232
2019-03-31T12:03:56.178Z,31200
2019-03-31T12:04:55.135Z,29152
2019-03-31T12:05:55.119Z,26976
2019-03-31T12:06:55.104Z,26400
2019-03-31T12:07:55.097Z,27712
2019-03-31T12:08:55.067Z,29152
2019-03-31T12:09:55.455Z,30272
2019-03-31T12:10:55.493Z,31040
2019-03-31T12:11:55.013Z,32064
2019-03-31T12:12:55.720Z,32224
2019-03-31T12:13:55.049Z,31488
2019-03-31T12:15:07.449Z,31264
2019-03-31T12:15:55.006Z,31360
2019-03-31T12:16:54.924Z,31168
2019-03-31T12:17:54.908Z,28192
2019-03-31T12:18:54.648Z,25216
2019-03-31T12:19:56.013Z,23936
2019-03-31T12:20:54.862Z,24192
2019-03-31T12:21:55.077Z,24768
2019-03-31T12:22:54.811Z,24128
2019-03-31T12:23:54.795Z,23872
2019-03-31T12:24:54.798Z,24960
2019-03-31T12:25:54.774Z,26656
2019-03-31T12:26:54.744Z,27104
2019-03-31T12:27:54.740Z,26912
2019-03-31T12:28:54.911Z,27104
2019-03-31T12:29:54.697Z,27296
2019-03-31T12:30:54.434Z,27776
2019-03-31T12:31:54.655Z,28576
2019-03-31T12:32:56.698Z,27968
2019-03-31T12:33:54.624Z,27648
2019-03-31T12:34:54.624Z,28704
2019-03-31T12:35:55.315Z,29088
2019-03-31T12:36:54.579Z,28512
2019-03-31T12:37:54.557Z,27264
2019-03-31T12:38:56.372Z,25440
2019-03-31T12:39:54.515Z,24704
2019-03-31T12:40:54.489Z,24288
2019-03-31T12:41:54.476Z,23584
2019-03-31T12:42:54.455Z,22784
2019-03-31T12:43:54.472Z,23136
2019-03-31T12:44:56.781Z,23840
2019-03-31T12:45:54.411Z,24128
2019-03-31T12:46:56.100Z,23808
2019-03-31T12:47:54.367Z,23840
2019-03-31T12:48:54.349Z,24160
2019-03-31T12:49:54.453Z,24032
2019-03-31T12:50:54.306Z,23232
2019-03-31T12:51:57.540Z,21696
2019-03-31T12:52:58.050Z,20640
2019-03-31T12:53:57.866Z,20544
2019-03-31T12:54:54.899Z,20896
2019-03-31T12:56:07.085Z,22496
2019-03-31T12:56:54.193Z,23520
2019-03-31T12:57:56.651Z,23680
2019-03-31T12:58:54.155Z,23712
2019-03-31T12:59:54.146Z,23840
2019-03-31T13:00:54.125Z,24032
2019-03-31T13:01:54.044Z,25120
2019-03-31T13:02:55.689Z,26592
2019-03-31T13:03:56.330Z,27008
2019-03-31T13:04:54.044Z,27296
2019-03-31T13:05:54.024Z,27872
2019-03-31T13:06:54.009Z,29248
2019-03-31T13:08:03.622Z,30080
2019-03-31T13:08:53.977Z,29056
2019-03-31T13:09:53.962Z,26816
2019-03-31T13:10:53.941Z,25632
2019-03-31T13:11:57.403Z,24192
2019-03-31T13:12:53.900Z,22752
2019-03-31T13:13:53.884Z,21344
2019-03-31T13:14:53.861Z,20672
2019-03-31T13:15:53.850Z,20576
2019-03-31T13:16:53.818Z,20672
2019-03-31T13:17:53.863Z,21312
2019-03-31T13:18:53.785Z,21920
2019-03-31T13:19:53.767Z,22208
2019-03-31T13:20:53.754Z,21952
2019-03-31T13:21:53.731Z,21696
2019-03-31T13:22:53.743Z,21792
2019-03-31T13:23:53.699Z,21600
2019-03-31T13:24:53.715Z,21120
2019-03-31T13:25:53.655Z,21952
2019-03-31T13:26:53.628Z,23232
2019-03-31T13:27:53.376Z,24160
2019-03-31T13:28:53.650Z,24864
2019-03-31T13:29:53.578Z,23392
2019-03-31T13:30:54.828Z,21728
2019-03-31T13:31:53.560Z,21376
2019-03-31T13:32:53.528Z,21472
2019-03-31T13:33:53.507Z,20384
2019-03-31T13:34:53.489Z,19904
2019-03-31T13:35:55.652Z,21280
2019-03-31T13:36:53.473Z,22336
2019-03-31T13:37:53.548Z,21568